sensor_id;sensor_type;location;lat;lon;timestamp;P1;durP1;ratioP1;P2;durP2;ratioP2
3000;SDS011;1510;51.072;6.678;2022-09-17T00:01:27;103.73;;;99.70;;
3000;SDS011;1510;51.072;6.678;2022-09-17T00:03:56;92.07;;;88.57;;
3000;SDS011;1510;51.072;6.678;2022-09-17T00:06:26;91.17;;;87.00;;
3000;SDS011;1510;51.072;6.678;2022-09-17T00:08:53;81.93;;;78.60;;
3000;SDS011;1510;51.072;6.678;2022-09-17T00:11:23;113.70;;;109.00;;
3000;SDS011;1510;51.072;6.678;2022-09-17T00:13:51;141.90;;;136.20;;
3000;SDS011;1510;51.072;6.678;2022-09-17T00:16:22;125.27;;;120.67;;
3000;SDS011;1510;51.072;6.678;2022-09-17T00:18:51;156.87;;;151.07;;
3000;SDS011;1510;51.072;6.678;2022-09-17T00:21:18;155.27;;;149.43;;
3000;SDS011;1510;51.072;6.678;2022-09-17T00:23:46;122.37;;;117.17;;
3000;SDS011;1510;51.072;6.678;2022-09-17T00:26:12;133.10;;;128.20;;
3000;SDS011;1510;51.072;6.678;2022-09-17T00:28:41;141.77;;;137.07;;
3000;SDS011;1510;51.072;6.678;2022-09-17T00:31:12;147.40;;;142.10;;
3000;SDS011;1510;51.072;6.678;2022-09-17T00:33:39;135.37;;;129.63;;
3000;SDS011;1510;51.072;6.678;2022-09-17T00:36:06;152.43;;;146.37;;
3000;SDS011;1510;51.072;6.678;2022-09-17T00:38:33;164.77;;;158.87;;
3000;SDS011;1510;51.072;6.678;2022-09-17T00:41:00;140.27;;;135.43;;
3000;SDS011;1510;51.072;6.678;2022-09-17T00:43:32;194.93;;;187.97;;
3000;SDS011;1510;51.072;6.678;2022-09-17T00:49:32;165.67;;;159.87;;
3000;SDS011;1510;51.072;6.678;2022-09-17T00:52:00;208.87;;;201.60;;
3000;SDS011;1510;51.072;6.678;2022-09-17T00:54:31;219.23;;;211.27;;
3000;SDS011;1510;51.072;6.678;2022-09-17T00:56:59;227.60;;;219.40;;
3000;SDS011;1510;51.072;6.678;2022-09-17T00:59:26;201.37;;;193.87;;
3000;SDS011;1510;51.072;6.678;2022-09-17T01:01:54;167.97;;;161.87;;
3000;SDS011;1510;51.072;6.678;2022-09-17T01:04:23;269.40;;;259.23;;
3000;SDS011;1510;51.072;6.678;2022-09-17T01:06:52;282.00;;;271.10;;
3000;SDS011;1510;51.072;6.678;2022-09-17T01:09:27;232.57;;;224.17;;
3000;SDS011;1510;51.072;6.678;2022-09-17T01:12:12;279.70;;;270.00;;
3000;SDS011;1510;51.072;6.678;2022-09-17T01:14:57;268.33;;;258.97;;
3000;SDS011;1510;51.072;6.678;2022-09-17T01:17:34;249.50;;;240.63;;
3000;SDS011;1510;51.072;6.678;2022-09-17T01:23:16;306.33;;;295.60;;
3000;SDS011;1510;51.072;6.678;2022-09-17T01:26:02;317.17;;;305.77;;
3000;SDS011;1510;51.072;6.678;2022-09-17T01:28:40;303.73;;;292.87;;
3000;SDS011;1510;51.072;6.678;2022-09-17T01:31:19;289.20;;;278.83;;
3000;SDS011;1510;51.072;6.678;2022-09-17T01:33:57;162.30;;;156.80;;
3000;SDS011;1510;51.072;6.678;2022-09-17T01:36:32;204.83;;;197.43;;
3000;SDS011;1510;51.072;6.678;2022-09-17T01:39:12;183.03;;;175.83;;
3000;SDS011;1510;51.072;6.678;2022-09-17T01:41:50;221.83;;;213.73;;
3000;SDS011;1510;51.072;6.678;2022-09-17T01:44:21;223.77;;;215.27;;
3000;SDS011;1510;51.072;6.678;2022-09-17T01:46:55;231.00;;;223.13;;
3000;SDS011;1510;51.072;6.678;2022-09-17T01:49:28;251.83;;;242.43;;
3000;SDS011;1510;51.072;6.678;2022-09-17T01:51:56;285.67;;;275.67;;
3000;SDS011;1510;51.072;6.678;2022-09-17T01:54:24;319.53;;;307.53;;
3000;SDS011;1510;51.072;6.678;2022-09-17T01:56:55;365.13;;;351.73;;
3000;SDS011;1510;51.072;6.678;2022-09-17T01:59:26;388.27;;;374.27;;
3000;SDS011;1510;51.072;6.678;2022-09-17T02:01:59;351.63;;;339.63;;
3000;SDS011;1510;51.072;6.678;2022-09-17T02:04:30;459.37;;;440.47;;
3000;SDS011;1510;51.072;6.678;2022-09-17T02:07:02;457.13;;;438.47;;
3000;SDS011;1510;51.072;6.678;2022-09-17T02:09:33;450.47;;;432.27;;
3000;SDS011;1510;51.072;6.678;2022-09-17T02:12:07;425.97;;;408.97;;
3000;SDS011;1510;51.072;6.678;2022-09-17T02:14:40;391.13;;;376.03;;
3000;SDS011;1510;51.072;6.678;2022-09-17T02:17:13;375.47;;;360.50;;
3000;SDS011;1510;51.072;6.678;2022-09-17T02:19:44;348.60;;;335.80;;
3000;SDS011;1510;51.072;6.678;2022-09-17T02:22:14;349.40;;;336.13;;
3000;SDS011;1510;51.072;6.678;2022-09-17T02:24:49;340.33;;;326.50;;
3000;SDS011;1510;51.072;6.678;2022-09-17T02:27:27;305.33;;;293.10;;
3000;SDS011;1510;51.072;6.678;2022-09-17T02:30:02;293.87;;;282.87;;
3000;SDS011;1510;51.072;6.678;2022-09-17T02:32:32;297.77;;;285.40;;
3000;SDS011;1510;51.072;6.678;2022-09-17T02:34:58;279.93;;;268.73;;
3000;SDS011;1510;51.072;6.678;2022-09-17T02:37:25;260.57;;;250.37;;
3000;SDS011;1510;51.072;6.678;2022-09-17T02:39:52;245.53;;;236.40;;
3000;SDS011;1510;51.072;6.678;2022-09-17T02:42:20;239.47;;;231.27;;
3000;SDS011;1510;51.072;6.678;2022-09-17T02:44:56;256.70;;;247.87;;
3000;SDS011;1510;51.072;6.678;2022-09-17T02:47:36;216.77;;;209.40;;
3000;SDS011;1510;51.072;6.678;2022-09-17T02:50:29;181.50;;;175.10;;
3000;SDS011;1510;51.072;6.678;2022-09-17T02:53:08;154.27;;;147.87;;
3000;SDS011;1510;51.072;6.678;2022-09-17T02:55:47;158.93;;;152.93;;
3000;SDS011;1510;51.072;6.678;2022-09-17T02:58:20;155.77;;;149.67;;
3000;SDS011;1510;51.072;6.678;2022-09-17T03:00:51;134.73;;;129.33;;
3000;SDS011;1510;51.072;6.678;2022-09-17T03:03:22;79.60;;;76.23;;
3000;SDS011;1510;51.072;6.678;2022-09-17T03:05:54;99.13;;;95.37;;
3000;SDS011;1510;51.072;6.678;2022-09-17T03:08:26;92.93;;;89.13;;
3000;SDS011;1510;51.072;6.678;2022-09-17T03:10:54;80.30;;;77.10;;
3000;SDS011;1510;51.072;6.678;2022-09-17T03:13:20;79.60;;;76.37;;
3000;SDS011;1510;51.072;6.678;2022-09-17T03:15:47;79.27;;;75.27;;
3000;SDS011;1510;51.072;6.678;2022-09-17T03:18:14;109.80;;;104.53;;
3000;SDS011;1510;51.072;6.678;2022-09-17T03:20:42;79.07;;;74.87;;
3000;SDS011;1510;51.072;6.678;2022-09-17T03:23:10;82.33;;;78.23;;
3000;SDS011;1510;51.072;6.678;2022-09-17T03:25:37;95.27;;;91.07;;
3000;SDS011;1510;51.072;6.678;2022-09-17T03:28:04;100.07;;;95.93;;
3000;SDS011;1510;51.072;6.678;2022-09-17T03:30:30;125.53;;;120.90;;
3000;SDS011;1510;51.072;6.678;2022-09-17T03:32:57;101.10;;;96.93;;
3000;SDS011;1510;51.072;6.678;2022-09-17T03:35:24;71.83;;;68.80;;
3000;SDS011;1510;51.072;6.678;2022-09-17T03:37:52;56.07;;;53.37;;
3000;SDS011;1510;51.072;6.678;2022-09-17T03:40:19;52.73;;;49.73;;
3000;SDS011;1510;51.072;6.678;2022-09-17T03:42:46;91.60;;;87.60;;
3000;SDS011;1510;51.072;6.678;2022-09-17T03:45:12;115.03;;;110.23;;
3000;SDS011;1510;51.072;6.678;2022-09-17T03:47:39;102.37;;;97.97;;
3000;SDS011;1510;51.072;6.678;2022-09-17T03:50:06;156.77;;;149.90;;
3000;SDS011;1510;51.072;6.678;2022-09-17T03:52:47;181.97;;;174.93;;
3000;SDS011;1510;51.072;6.678;2022-09-17T03:55:35;215.43;;;207.27;;
3000;SDS011;1510;51.072;6.678;2022-09-17T03:58:29;222.90;;;215.13;;
3000;SDS011;1510;51.072;6.678;2022-09-17T04:01:08;268.27;;;258.87;;
3000;SDS011;1510;51.072;6.678;2022-09-17T04:03:35;278.97;;;268.73;;
3000;SDS011;1510;51.072;6.678;2022-09-17T04:06:02;315.00;;;302.93;;
3000;SDS011;1510;51.072;6.678;2022-09-17T04:08:31;352.70;;;339.80;;
3000;SDS011;1510;51.072;6.678;2022-09-17T04:11:26;373.33;;;360.27;;
3000;SDS011;1510;51.072;6.678;2022-09-17T04:13:53;384.00;;;369.23;;
3000;SDS011;1510;51.072;6.678;2022-09-17T04:16:20;418.50;;;402.30;;
3000;SDS011;1510;51.072;6.678;2022-09-17T04:18:48;439.77;;;423.47;;
3000;SDS011;1510;51.072;6.678;2022-09-17T04:21:21;451.00;;;434.33;;
3000;SDS011;1510;51.072;6.678;2022-09-17T04:23:58;446.03;;;430.13;;
3000;SDS011;1510;51.072;6.678;2022-09-17T04:26:34;477.27;;;457.90;;
3000;SDS011;1510;51.072;6.678;2022-09-17T04:29:01;410.70;;;394.83;;
3000;SDS011;1510;51.072;6.678;2022-09-17T04:31:27;373.07;;;358.77;;
3000;SDS011;1510;51.072;6.678;2022-09-17T04:33:54;319.90;;;307.33;;
3000;SDS011;1510;51.072;6.678;2022-09-17T04:36:21;319.50;;;307.73;;
3000;SDS011;1510;51.072;6.678;2022-09-17T04:38:48;310.17;;;298.67;;
3000;SDS011;1510;51.072;6.678;2022-09-17T04:41:15;318.07;;;307.07;;
3000;SDS011;1510;51.072;6.678;2022-09-17T04:43:43;286.67;;;276.37;;
3000;SDS011;1510;51.072;6.678;2022-09-17T04:46:10;294.40;;;283.37;;
3000;SDS011;1510;51.072;6.678;2022-09-17T04:48:38;333.97;;;321.77;;
3000;SDS011;1510;51.072;6.678;2022-09-17T04:51:05;329.73;;;317.47;;
3000;SDS011;1510;51.072;6.678;2022-09-17T04:53:31;323.40;;;311.43;;
3000;SDS011;1510;51.072;6.678;2022-09-17T04:55:58;335.27;;;321.57;;
3000;SDS011;1510;51.072;6.678;2022-09-17T05:02:08;286.53;;;275.23;;
3000;SDS011;1510;51.072;6.678;2022-09-17T05:04:35;279.47;;;268.20;;
3000;SDS011;1510;51.072;6.678;2022-09-17T05:07:04;269.70;;;259.53;;
3000;SDS011;1510;51.072;6.678;2022-09-17T05:09:31;289.23;;;278.27;;
3000;SDS011;1510;51.072;6.678;2022-09-17T05:11:57;301.13;;;290.33;;
3000;SDS011;1510;51.072;6.678;2022-09-17T05:14:24;315.17;;;304.47;;
3000;SDS011;1510;51.072;6.678;2022-09-17T05:16:51;331.17;;;319.57;;
3000;SDS011;1510;51.072;6.678;2022-09-17T05:19:19;347.70;;;335.60;;
3000;SDS011;1510;51.072;6.678;2022-09-17T05:21:46;387.73;;;373.33;;
3000;SDS011;1510;51.072;6.678;2022-09-17T05:24:12;395.10;;;381.13;;
3000;SDS011;1510;51.072;6.678;2022-09-17T05:27:11;411.60;;;396.63;;
3000;SDS011;1510;51.072;6.678;2022-09-17T05:29:27;424.80;;;408.87;;
3000;SDS011;1510;51.072;6.678;2022-09-17T05:33:00;447.50;;;430.20;;
3000;SDS011;1510;51.072;6.678;2022-09-17T05:37:41;430.47;;;413.30;;
3000;SDS011;1510;51.072;6.678;2022-09-17T05:51:36;191.63;;;184.73;;
3000;SDS011;1510;51.072;6.678;2022-09-17T05:54:04;149.00;;;143.00;;
3000;SDS011;1510;51.072;6.678;2022-09-17T05:57:35;95.33;;;91.10;;
3000;SDS011;1510;51.072;6.678;2022-09-17T06:00:22;67.23;;;63.23;;
3000;SDS011;1510;51.072;6.678;2022-09-17T06:02:54;50.77;;;48.43;;
3000;SDS011;1510;51.072;6.678;2022-09-17T06:06:14;50.53;;;47.23;;
3000;SDS011;1510;51.072;6.678;2022-09-17T06:18:12;16.83;;;8.30;;
3000;SDS011;1510;51.072;6.678;2022-09-17T06:20:41;17.50;;;8.13;;
3000;SDS011;1510;51.072;6.678;2022-09-17T06:26:33;15.63;;;7.70;;
3000;SDS011;1510;51.072;6.678;2022-09-17T06:40:23;19.73;;;11.17;;
3000;SDS011;1510;51.072;6.678;2022-09-17T06:42:57;17.60;;;10.27;;
3000;SDS011;1510;51.072;6.678;2022-09-17T06:45:50;14.60;;;11.97;;
3000;SDS011;1510;51.072;6.678;2022-09-17T06:48:32;15.30;;;13.63;;
3000;SDS011;1510;51.072;6.678;2022-09-17T06:51:22;24.33;;;14.03;;
3000;SDS011;1510;51.072;6.678;2022-09-17T06:54:09;16.70;;;10.20;;
3000;SDS011;1510;51.072;6.678;2022-09-17T06:56:52;14.73;;;8.50;;
3000;SDS011;1510;51.072;6.678;2022-09-17T06:59:19;10.97;;;8.77;;
3000;SDS011;1510;51.072;6.678;2022-09-17T07:01:54;14.87;;;13.37;;
3000;SDS011;1510;51.072;6.678;2022-09-17T07:04:32;12.03;;;10.63;;
3000;SDS011;1510;51.072;6.678;2022-09-17T07:07:19;11.47;;;8.90;;
3000;SDS011;1510;51.072;6.678;2022-09-17T07:09:59;13.07;;;7.80;;
3000;SDS011;1510;51.072;6.678;2022-09-17T07:12:44;10.03;;;5.50;;
3000;SDS011;1510;51.072;6.678;2022-09-17T07:15:21;10.60;;;4.80;;
3000;SDS011;1510;51.072;6.678;2022-09-17T07:17:57;15.13;;;3.13;;
3000;SDS011;1510;51.072;6.678;2022-09-17T07:20:50;9.80;;;3.07;;
3000;SDS011;1510;51.072;6.678;2022-09-17T07:23:49;8.67;;;2.60;;
3000;SDS011;1510;51.072;6.678;2022-09-17T07:26:37;8.00;;;3.10;;
3000;SDS011;1510;51.072;6.678;2022-09-17T07:29:16;8.63;;;2.53;;
3000;SDS011;1510;51.072;6.678;2022-09-17T07:31:44;13.43;;;3.03;;
3000;SDS011;1510;51.072;6.678;2022-09-17T07:41:05;9.80;;;2.50;;
3000;SDS011;1510;51.072;6.678;2022-09-17T07:43:51;8.60;;;2.20;;
3000;SDS011;1510;51.072;6.678;2022-09-17T07:56:23;8.67;;;2.23;;
3000;SDS011;1510;51.072;6.678;2022-09-17T07:58:53;9.27;;;1.92;;
3000;SDS011;1510;51.072;6.678;2022-09-17T08:01:20;9.03;;;2.20;;
3000;SDS011;1510;51.072;6.678;2022-09-17T08:04:14;6.20;;;1.37;;
3000;SDS011;1510;51.072;6.678;2022-09-17T08:09:27;13.60;;;2.37;;
3000;SDS011;1510;51.072;6.678;2022-09-17T08:12:20;14.33;;;2.20;;
3000;SDS011;1510;51.072;6.678;2022-09-17T08:14:52;6.20;;;2.13;;
3000;SDS011;1510;51.072;6.678;2022-09-17T08:17:19;7.93;;;1.50;;
3000;SDS011;1510;51.072;6.678;2022-09-17T08:19:47;8.03;;;2.03;;
3000;SDS011;1510;51.072;6.678;2022-09-17T08:22:14;6.27;;;1.27;;
3000;SDS011;1510;51.072;6.678;2022-09-17T08:24:40;12.53;;;1.93;;
3000;SDS011;1510;51.072;6.678;2022-09-17T08:27:09;9.17;;;2.00;;
3000;SDS011;1510;51.072;6.678;2022-09-17T08:29:37;8.13;;;2.20;;
3000;SDS011;1510;51.072;6.678;2022-09-17T08:32:03;7.20;;;1.50;;
3000;SDS011;1510;51.072;6.678;2022-09-17T08:34:30;7.27;;;2.10;;
3000;SDS011;1510;51.072;6.678;2022-09-17T08:36:59;6.90;;;1.80;;
3000;SDS011;1510;51.072;6.678;2022-09-17T08:39:28;8.03;;;1.67;;
3000;SDS011;1510;51.072;6.678;2022-09-17T08:41:56;11.03;;;2.13;;
3000;SDS011;1510;51.072;6.678;2022-09-17T08:44:34;7.30;;;1.23;;
3000;SDS011;1510;51.072;6.678;2022-09-17T08:47:07;8.83;;;1.93;;
3000;SDS011;1510;51.072;6.678;2022-09-17T08:49:44;11.17;;;1.63;;
3000;SDS011;1510;51.072;6.678;2022-09-17T08:52:21;4.97;;;1.10;;
3000;SDS011;1510;51.072;6.678;2022-09-17T08:55:12;8.40;;;1.20;;
3000;SDS011;1510;51.072;6.678;2022-09-17T08:57:50;11.33;;;1.63;;
3000;SDS011;1510;51.072;6.678;2022-09-17T09:00:23;19.80;;;2.17;;
3000;SDS011;1510;51.072;6.678;2022-09-17T09:02:58;11.43;;;2.50;;
3000;SDS011;1510;51.072;6.678;2022-09-17T09:05:36;8.30;;;1.40;;
3000;SDS011;1510;51.072;6.678;2022-09-17T09:08:12;6.03;;;1.30;;
3000;SDS011;1510;51.072;6.678;2022-09-17T09:10:55;5.60;;;1.30;;
3000;SDS011;1510;51.072;6.678;2022-09-17T09:13:26;11.07;;;1.43;;
3000;SDS011;1510;51.072;6.678;2022-09-17T09:15:57;6.67;;;1.67;;
3000;SDS011;1510;51.072;6.678;2022-09-17T09:18:26;10.47;;;1.77;;
3000;SDS011;1510;51.072;6.678;2022-09-17T09:21:01;8.17;;;1.67;;
3000;SDS011;1510;51.072;6.678;2022-09-17T09:23:53;10.93;;;1.80;;
3000;SDS011;1510;51.072;6.678;2022-09-17T09:26:23;10.23;;;1.87;;
3000;SDS011;1510;51.072;6.678;2022-09-17T09:29:13;5.00;;;1.10;;
3000;SDS011;1510;51.072;6.678;2022-09-17T09:32:07;7.60;;;1.30;;
3000;SDS011;1510;51.072;6.678;2022-09-17T09:34:45;8.83;;;1.50;;
3000;SDS011;1510;51.072;6.678;2022-09-17T09:37:16;5.10;;;1.03;;
3000;SDS011;1510;51.072;6.678;2022-09-17T09:39:49;7.33;;;1.40;;
3000;SDS011;1510;51.072;6.678;2022-09-17T09:42:18;7.93;;;2.60;;
3000;SDS011;1510;51.072;6.678;2022-09-17T09:45:23;11.13;;;1.63;;
3000;SDS011;1510;51.072;6.678;2022-09-17T09:48:15;7.53;;;1.00;;
3000;SDS011;1510;51.072;6.678;2022-09-17T09:51:06;6.10;;;1.47;;
3000;SDS011;1510;51.072;6.678;2022-09-17T09:53:57;6.23;;;1.50;;
3000;SDS011;1510;51.072;6.678;2022-09-17T09:56:56;7.47;;;1.43;;
3000;SDS011;1510;51.072;6.678;2022-09-17T09:59:48;9.13;;;1.43;;
3000;SDS011;1510;51.072;6.678;2022-09-17T10:02:57;7.73;;;1.23;;
3000;SDS011;1510;51.072;6.678;2022-09-17T10:05:32;5.80;;;1.30;;
3000;SDS011;1510;51.072;6.678;2022-09-17T10:08:11;8.53;;;2.67;;
3000;SDS011;1510;51.072;6.678;2022-09-17T10:10:55;9.23;;;1.27;;
3000;SDS011;1510;51.072;6.678;2022-09-17T10:13:27;7.83;;;1.20;;
3000;SDS011;1510;51.072;6.678;2022-09-17T10:16:23;6.03;;;1.20;;
3000;SDS011;1510;51.072;6.678;2022-09-17T10:19:09;6.63;;;1.20;;
3000;SDS011;1510;51.072;6.678;2022-09-17T10:21:55;9.27;;;1.80;;
3000;SDS011;1510;51.072;6.678;2022-09-17T10:30:23;10.70;;;1.30;;
3000;SDS011;1510;51.072;6.678;2022-09-17T10:33:17;8.83;;;1.47;;
3000;SDS011;1510;51.072;6.678;2022-09-17T10:36:01;7.70;;;1.00;;
3000;SDS011;1510;51.072;6.678;2022-09-17T10:38:38;5.27;;;1.40;;
3000;SDS011;1510;51.072;6.678;2022-09-17T10:41:09;5.50;;;1.10;;
3000;SDS011;1510;51.072;6.678;2022-09-17T10:43:49;10.57;;;1.50;;
3000;SDS011;1510;51.072;6.678;2022-09-17T10:46:24;7.90;;;1.20;;
3000;SDS011;1510;51.072;6.678;2022-09-17T10:49:07;7.87;;;1.50;;
3000;SDS011;1510;51.072;6.678;2022-09-17T10:51:38;5.30;;;1.20;;
3000;SDS011;1510;51.072;6.678;2022-09-17T10:57:28;10.90;;;1.20;;
3000;SDS011;1510;51.072;6.678;2022-09-17T11:00:06;4.50;;;0.97;;
3000;SDS011;1510;51.072;6.678;2022-09-17T11:05:48;8.43;;;1.43;;
3000;SDS011;1510;51.072;6.678;2022-09-17T11:08:35;8.13;;;1.47;;
3000;SDS011;1510;51.072;6.678;2022-09-17T11:11:16;6.50;;;1.23;;
3000;SDS011;1510;51.072;6.678;2022-09-17T11:13:59;11.63;;;2.23;;
3000;SDS011;1510;51.072;6.678;2022-09-17T11:16:37;9.17;;;1.30;;
3000;SDS011;1510;51.072;6.678;2022-09-17T11:19:20;5.87;;;1.00;;
3000;SDS011;1510;51.072;6.678;2022-09-17T11:22:04;7.63;;;1.00;;
3000;SDS011;1510;51.072;6.678;2022-09-17T11:24:56;5.03;;;1.13;;
3000;SDS011;1510;51.072;6.678;2022-09-17T11:27:45;6.00;;;1.07;;
3000;SDS011;1510;51.072;6.678;2022-09-17T11:30:21;5.80;;;1.67;;
3000;SDS011;1510;51.072;6.678;2022-09-17T11:35:54;6.57;;;1.20;;
3000;SDS011;1510;51.072;6.678;2022-09-17T11:38:26;5.47;;;0.80;;
3000;SDS011;1510;51.072;6.678;2022-09-17T11:41:01;5.23;;;1.13;;
3000;SDS011;1510;51.072;6.678;2022-09-17T11:43:32;6.10;;;1.40;;
3000;SDS011;1510;51.072;6.678;2022-09-17T11:46:02;4.17;;;1.13;;
3000;SDS011;1510;51.072;6.678;2022-09-17T11:48:38;4.47;;;0.97;;
3000;SDS011;1510;51.072;6.678;2022-09-17T11:51:14;4.83;;;1.30;;
3000;SDS011;1510;51.072;6.678;2022-09-17T11:53:47;5.73;;;1.10;;
3000;SDS011;1510;51.072;6.678;2022-09-17T11:56:20;5.73;;;1.40;;
3000;SDS011;1510;51.072;6.678;2022-09-17T11:58:52;7.07;;;1.23;;
3000;SDS011;1510;51.072;6.678;2022-09-17T12:01:26;4.80;;;1.10;;
3000;SDS011;1510;51.072;6.678;2022-09-17T12:04:04;5.23;;;2.40;;
3000;SDS011;1510;51.072;6.678;2022-09-17T12:06:55;6.23;;;1.20;;
3000;SDS011;1510;51.072;6.678;2022-09-17T12:09:33;7.07;;;1.40;;
3000;SDS011;1510;51.072;6.678;2022-09-17T12:12:05;5.73;;;0.93;;
3000;SDS011;1510;51.072;6.678;2022-09-17T12:14:42;5.17;;;1.30;;
3000;SDS011;1510;51.072;6.678;2022-09-17T12:17:14;8.23;;;1.23;;
3000;SDS011;1510;51.072;6.678;2022-09-17T12:19:47;6.00;;;1.60;;
3000;SDS011;1510;51.072;6.678;2022-09-17T12:22:20;7.10;;;1.47;;
3000;SDS011;1510;51.072;6.678;2022-09-17T12:24:51;7.90;;;1.50;;
3000;SDS011;1510;51.072;6.678;2022-09-17T12:27:23;6.27;;;1.40;;
3000;SDS011;1510;51.072;6.678;2022-09-17T12:30:05;9.10;;;1.20;;
3000;SDS011;1510;51.072;6.678;2022-09-17T12:32:47;5.50;;;1.63;;
3000;SDS011;1510;51.072;6.678;2022-09-17T12:35:35;8.03;;;1.23;;
3000;SDS011;1510;51.072;6.678;2022-09-17T12:38:34;6.13;;;1.23;;
3000;SDS011;1510;51.072;6.678;2022-09-17T12:41:19;5.70;;;1.43;;
3000;SDS011;1510;51.072;6.678;2022-09-17T12:43:58;6.20;;;1.47;;
3000;SDS011;1510;51.072;6.678;2022-09-17T12:46:40;5.13;;;1.50;;
3000;SDS011;1510;51.072;6.678;2022-09-17T12:52:19;5.20;;;1.77;;
3000;SDS011;1510;51.072;6.678;2022-09-17T12:55:01;6.40;;;1.57;;
3000;SDS011;1510;51.072;6.678;2022-09-17T12:57:45;8.17;;;1.77;;
3000;SDS011;1510;51.072;6.678;2022-09-17T13:00:18;4.80;;;1.10;;
3000;SDS011;1510;51.072;6.678;2022-09-17T13:02:47;4.33;;;1.00;;
3000;SDS011;1510;51.072;6.678;2022-09-17T13:05:27;3.87;;;0.87;;
3000;SDS011;1510;51.072;6.678;2022-09-17T13:08:14;6.93;;;1.20;;
3000;SDS011;1510;51.072;6.678;2022-09-17T13:13:59;6.57;;;1.83;;
3000;SDS011;1510;51.072;6.678;2022-09-17T13:16:32;5.20;;;1.90;;
3000;SDS011;1510;51.072;6.678;2022-09-17T13:19:09;5.50;;;1.60;;
3000;SDS011;1510;51.072;6.678;2022-09-17T13:21:50;10.47;;;5.90;;
3000;SDS011;1510;51.072;6.678;2022-09-17T13:24:20;6.33;;;2.90;;
3000;SDS011;1510;51.072;6.678;2022-09-17T13:26:49;7.00;;;1.40;;
3000;SDS011;1510;51.072;6.678;2022-09-17T13:32:42;65.77;;;63.27;;
3000;SDS011;1510;51.072;6.678;2022-09-17T13:38:11;3.50;;;1.70;;
3000;SDS011;1510;51.072;6.678;2022-09-17T13:40:38;3.50;;;1.80;;
3000;SDS011;1510;51.072;6.678;2022-09-17T13:43:06;3.50;;;1.70;;
3000;SDS011;1510;51.072;6.678;2022-09-17T13:48:49;3.60;;;2.10;;
3000;SDS011;1510;51.072;6.678;2022-09-17T13:54:11;3.30;;;0.90;;
3000;SDS011;1510;51.072;6.678;2022-09-17T13:56:41;3.90;;;1.50;;
3000;SDS011;1510;51.072;6.678;2022-09-17T13:59:11;4.07;;;1.57;;
3000;SDS011;1510;51.072;6.678;2022-09-17T14:01:58;3.30;;;0.70;;
3000;SDS011;1510;51.072;6.678;2022-09-17T14:04:52;4.27;;;1.03;;
3000;SDS011;1510;51.072;6.678;2022-09-17T14:07:34;3.30;;;0.70;;
3000;SDS011;1510;51.072;6.678;2022-09-17T14:15:54;3.30;;;0.60;;
3000;SDS011;1510;51.072;6.678;2022-09-17T14:18:36;3.30;;;0.70;;
3000;SDS011;1510;51.072;6.678;2022-09-17T14:21:17;3.20;;;0.70;;
3000;SDS011;1510;51.072;6.678;2022-09-17T14:23:53;3.27;;;0.70;;
3000;SDS011;1510;51.072;6.678;2022-09-17T14:26:24;3.30;;;0.67;;
3000;SDS011;1510;51.072;6.678;2022-09-17T14:29:01;3.30;;;0.60;;
3000;SDS011;1510;51.072;6.678;2022-09-17T14:31:39;5.20;;;1.80;;
3000;SDS011;1510;51.072;6.678;2022-09-17T14:34:09;3.30;;;0.60;;
3000;SDS011;1510;51.072;6.678;2022-09-17T14:36:47;3.20;;;0.60;;
3000;SDS011;1510;51.072;6.678;2022-09-17T14:39:19;3.10;;;0.60;;
3000;SDS011;1510;51.072;6.678;2022-09-17T14:41:49;3.20;;;0.60;;
3000;SDS011;1510;51.072;6.678;2022-09-17T14:44:19;3.20;;;0.60;;
3000;SDS011;1510;51.072;6.678;2022-09-17T14:46:49;3.20;;;0.60;;
3000;SDS011;1510;51.072;6.678;2022-09-17T14:49:23;3.20;;;0.70;;
3000;SDS011;1510;51.072;6.678;2022-09-17T15:01:46;3.30;;;0.70;;
3000;SDS011;1510;51.072;6.678;2022-09-17T15:08:43;3.30;;;0.80;;
3000;SDS011;1510;51.072;6.678;2022-09-17T15:11:05;3.30;;;0.80;;
3000;SDS011;1510;51.072;6.678;2022-09-17T15:13:40;3.40;;;1.00;;
3000;SDS011;1510;51.072;6.678;2022-09-17T15:27:42;3.40;;;1.10;;
3000;SDS011;1510;51.072;6.678;2022-09-17T15:30:34;3.30;;;1.10;;
3000;SDS011;1510;51.072;6.678;2022-09-17T15:36:32;3.33;;;1.10;;
3000;SDS011;1510;51.072;6.678;2022-09-17T15:39:28;3.30;;;1.00;;
3000;SDS011;1510;51.072;6.678;2022-09-17T15:41:54;3.30;;;0.90;;
3000;SDS011;1510;51.072;6.678;2022-09-17T15:47:56;3.30;;;0.80;;
3000;SDS011;1510;51.072;6.678;2022-09-17T15:50:30;3.20;;;0.80;;
3000;SDS011;1510;51.072;6.678;2022-09-17T15:53:30;3.30;;;0.80;;
3000;SDS011;1510;51.072;6.678;2022-09-17T15:56:02;3.23;;;0.70;;
3000;SDS011;1510;51.072;6.678;2022-09-17T15:58:34;3.30;;;1.03;;
3000;SDS011;1510;51.072;6.678;2022-09-17T16:07:32;3.30;;;0.70;;
3000;SDS011;1510;51.072;6.678;2022-09-17T16:10:39;3.87;;;2.40;;
3000;SDS011;1510;51.072;6.678;2022-09-17T16:15:45;3.20;;;0.60;;
3000;SDS011;1510;51.072;6.678;2022-09-17T16:21:42;3.27;;;0.60;;
3000;SDS011;1510;51.072;6.678;2022-09-17T16:24:34;3.20;;;0.60;;
3000;SDS011;1510;51.072;6.678;2022-09-17T16:27:55;3.20;;;0.60;;
3000;SDS011;1510;51.072;6.678;2022-09-17T16:33:45;3.30;;;0.80;;
3000;SDS011;1510;51.072;6.678;2022-09-17T16:36:59;3.20;;;0.60;;
3000;SDS011;1510;51.072;6.678;2022-09-17T16:43:02;3.30;;;0.60;;
3000;SDS011;1510;51.072;6.678;2022-09-17T16:49:08;3.30;;;0.60;;
3000;SDS011;1510;51.072;6.678;2022-09-17T16:51:54;3.30;;;0.60;;
3000;SDS011;1510;51.072;6.678;2022-09-17T16:55:47;3.30;;;0.70;;
3000;SDS011;1510;51.072;6.678;2022-09-17T17:01:21;3.30;;;0.70;;
3000;SDS011;1510;51.072;6.678;2022-09-17T17:04:24;3.40;;;0.70;;
3000;SDS011;1510;51.072;6.678;2022-09-17T17:06:47;3.30;;;0.70;;
3000;SDS011;1510;51.072;6.678;2022-09-17T17:19:08;3.33;;;0.80;;
3000;SDS011;1510;51.072;6.678;2022-09-17T17:21:35;3.40;;;0.80;;
3000;SDS011;1510;51.072;6.678;2022-09-17T17:24:02;3.30;;;0.70;;
3000;SDS011;1510;51.072;6.678;2022-09-17T17:26:30;3.30;;;0.70;;
3000;SDS011;1510;51.072;6.678;2022-09-17T17:28:57;3.40;;;0.80;;
3000;SDS011;1510;51.072;6.678;2022-09-17T17:31:26;3.37;;;0.80;;
3000;SDS011;1510;51.072;6.678;2022-09-17T17:33:53;3.37;;;0.80;;
3000;SDS011;1510;51.072;6.678;2022-09-17T17:36:20;3.30;;;0.80;;
3000;SDS011;1510;51.072;6.678;2022-09-17T17:38:47;3.40;;;0.90;;
3000;SDS011;1510;51.072;6.678;2022-09-17T17:41:14;3.60;;;1.40;;
3000;SDS011;1510;51.072;6.678;2022-09-17T17:43:42;3.60;;;1.40;;
3000;SDS011;1510;51.072;6.678;2022-09-17T17:46:09;3.40;;;0.90;;
3000;SDS011;1510;51.072;6.678;2022-09-17T17:48:38;3.27;;;0.90;;
3000;SDS011;1510;51.072;6.678;2022-09-17T17:51:05;3.37;;;0.93;;
3000;SDS011;1510;51.072;6.678;2022-09-17T17:53:34;3.33;;;1.00;;
3000;SDS011;1510;51.072;6.678;2022-09-17T17:56:02;3.43;;;1.00;;
3000;SDS011;1510;51.072;6.678;2022-09-17T17:58:31;3.43;;;1.20;;
3000;SDS011;1510;51.072;6.678;2022-09-17T18:00:58;3.40;;;1.07;;
3000;SDS011;1510;51.072;6.678;2022-09-17T18:03:26;3.40;;;1.10;;
3000;SDS011;1510;51.072;6.678;2022-09-17T18:05:54;3.40;;;1.10;;
3000;SDS011;1510;51.072;6.678;2022-09-17T18:08:21;3.40;;;1.20;;
3000;SDS011;1510;51.072;6.678;2022-09-17T18:10:51;3.40;;;1.10;;
3000;SDS011;1510;51.072;6.678;2022-09-17T18:13:19;3.40;;;1.20;;
3000;SDS011;1510;51.072;6.678;2022-09-17T18:15:50;3.40;;;1.20;;
3000;SDS011;1510;51.072;6.678;2022-09-17T18:18:19;3.40;;;1.20;;
3000;SDS011;1510;51.072;6.678;2022-09-17T18:20:46;3.40;;;1.30;;
3000;SDS011;1510;51.072;6.678;2022-09-17T18:23:15;3.40;;;1.20;;
3000;SDS011;1510;51.072;6.678;2022-09-17T18:25:50;3.37;;;1.10;;
3000;SDS011;1510;51.072;6.678;2022-09-17T18:28:17;3.40;;;1.20;;
3000;SDS011;1510;51.072;6.678;2022-09-17T18:30:44;3.40;;;1.30;;
3000;SDS011;1510;51.072;6.678;2022-09-17T18:33:11;4.33;;;3.20;;
3000;SDS011;1510;51.072;6.678;2022-09-17T18:35:38;3.30;;;1.10;;
3000;SDS011;1510;51.072;6.678;2022-09-17T18:38:05;3.40;;;1.20;;
3000;SDS011;1510;51.072;6.678;2022-09-17T18:40:33;3.43;;;1.30;;